Time;durP1;ratioP1;P1;durP2;ratioP2;P2;SDS_P1;SDS_P2;PMS_P1;PMS_P2;Temp;Humidity;BMP_temperature;BMP_pressure;BME280_temperature;BME280_humidity;BME280_pressure;Samples;Min_cycle;Max_cycle;Signal;HPM_P1;HPM_P2
2022/03/19 00:00:27;;;;;;;;;;;7.00;99.90;;;;;;2082263;28;19995;-68
2022/03/19 00:01:28;;;;;;;;;;;7.00;99.90;;;;;;2079187;28;19905;-68
2022/03/19 00:02:28;;;;;;;;;;;7.00;99.90;;;;;;2081973;28;20030;-68
2022/03/19 00:03:29;;;;;;;;;;;7.00;99.90;;;;;;2077829;28;19909;-69
2022/03/19 00:04:30;;;;;;;;;;;7.00;99.90;;;;;;2079538;28;19908;-68
2022/03/19 00:05:30;;;;;;;;;;;7.00;99.90;;;;;;2083782;28;19909;-68
2022/03/19 00:06:36;;;;;;;;;;;7.00;99.90;;;;;;2077751;28;20264;-68
2022/03/19 00:07:38;;;;;;;;;;;6.90;99.90;;;;;;2081015;28;19905;-68
2022/03/19 00:08:39;;;;;;;;;;;6.90;99.90;;;;;;2081804;28;19954;-68
2022/03/19 00:09:40;;;;;;;;;;;6.90;99.90;;;;;;2079281;28;19955;-68
2022/03/19 00:10:40;;;;;;;;;;;6.90;99.90;;;;;;2081128;28;20361;-68
2022/03/19 00:11:41;;;;;;;;;;;6.80;99.90;;;;;;2077198;28;20564;-68
2022/03/19 00:12:41;;;;;;;;;;;6.80;99.90;;;;;;2086912;28;19999;-68
2022/03/19 00:13:42;;;;;;;;;;;6.80;99.90;;;;;;2083828;28;19913;-68
2022/03/19 00:14:43;;;;;;;;;;;6.80;99.90;;;;;;2081288;28;19975;-68
2022/03/19 00:15:43;;;;;;;;;;;6.80;99.90;;;;;;2080453;28;19916;-68
2022/03/19 00:16:44;;;;;;;;;;;6.80;99.90;;;;;;2080623;28;19932;-68
2022/03/19 00:17:44;;;;;;;;;;;6.80;99.90;;;;;;2078571;28;19959;-68
2022/03/19 00:18:45;;;;;;;;;;;6.70;99.90;;;;;;2081313;28;20314;-68
2022/03/19 00:19:45;;;;;;;;;;;6.70;99.90;;;;;;2077847;28;19995;-68
2022/03/19 00:20:46;;;;;;;;;;;6.70;99.90;;;;;;2083615;28;19905;-68
2022/03/19 00:21:46;;;;;;;;;;;6.70;99.90;;;;;;2083440;28;20354;-68
2022/03/19 00:22:47;;;;;;;;;;;6.70;99.90;;;;;;2081647;28;19944;-68
2022/03/19 00:23:47;;;;;;;;;;;6.60;99.90;;;;;;2082775;28;19932;-68
2022/03/19 00:24:48;;;;;;;;;;;6.60;99.90;;;;;;2078145;28;20415;-68
2022/03/19 00:25:48;;;;;;;;;;;6.60;99.90;;;;;;2080665;28;19955;-68
2022/03/19 00:26:49;;;;;;;;;;;6.60;99.90;;;;;;2079879;28;19963;-68
2022/03/19 00:27:49;;;;;;;;;;;6.50;99.90;;;;;;2080777;28;20457;-68
2022/03/19 00:28:50;;;;;;;;;;;6.50;99.90;;;;;;2085853;28;20100;-68
2022/03/19 00:29:50;;;;;;;;;;;6.50;99.90;;;;;;2083325;28;19913;-68
2022/03/19 00:30:51;;;;;;;;;;;6.50;99.90;;;;;;2079885;28;19916;-68
2022/03/19 00:31:51;;;;;;;;;;;6.50;99.90;;;;;;2080379;28;19951;-68
2022/03/19 00:32:52;;;;;;;;;;;6.50;99.90;;;;;;2077820;28;19905;-68
2022/03/19 00:33:52;;;;;;;;;;;6.50;99.90;;;;;;2082259;28;19905;-68
2022/03/19 00:34:53;;;;;;;;;;;6.50;99.90;;;;;;2081994;28;19912;-68
2022/03/19 00:35:53;;;;;;;;;;;6.50;99.90;;;;;;2078061;28;19904;-68
2022/03/19 00:36:56;;;;;;;;;;;6.40;99.90;;;;;;2083281;28;19905;-68
2022/03/19 00:37:56;;;;;;;;;;;6.40;99.90;;;;;;2082802;28;20398;-68
2022/03/19 00:38:57;;;;;;;;;;;6.40;99.90;;;;;;2081475;28;20260;-68
2022/03/19 00:39:57;;;;;;;;;;;6.40;99.90;;;;;;2081324;28;19920;-68
2022/03/19 00:40:58;;;;;;;;;;;6.40;99.90;;;;;;2080663;28;19995;-68
2022/03/19 00:41:58;;;;;;;;;;;6.40;99.90;;;;;;2079404;28;19916;-68
2022/03/19 00:42:59;;;;;;;;;;;6.40;99.90;;;;;;2080423;28;20008;-68
2022/03/19 00:43:59;;;;;;;;;;;6.30;99.90;;;;;;2081170;28;20276;-68
2022/03/19 00:44:59;;;;;;;;;;;6.30;99.90;;;;;;2083056;28;19913;-68
2022/03/19 00:46:00;;;;;;;;;;;6.30;99.90;;;;;;2078481;28;20372;-68
2022/03/19 00:47:01;;;;;;;;;;;6.30;99.90;;;;;;2083091;28;19912;-68
2022/03/19 00:48:01;;;;;;;;;;;6.30;99.90;;;;;;2078658;28;20039;-68
2022/03/19 00:49:01;;;;;;;;;;;6.30;99.90;;;;;;2081115;28;19909;-68
2022/03/19 00:50:03;;;;;;;;;;;6.30;99.90;;;;;;2078416;28;19909;-68
2022/03/19 00:51:04;;;;;;;;;;;6.30;99.90;;;;;;2077262;28;20340;-68
2022/03/19 00:52:04;;;;;;;;;;;6.20;99.90;;;;;;2083632;28;20533;-68
2022/03/19 00:53:05;;;;;;;;;;;6.20;99.90;;;;;;2082793;28;19913;-68
2022/03/19 00:54:06;;;;;;;;;;;6.20;99.90;;;;;;2080118;28;19909;-68
2022/03/19 00:55:07;;;;;;;;;;;6.20;99.90;;;;;;2082354;28;19912;-68
2022/03/19 00:56:08;;;;;;;;;;;6.10;99.90;;;;;;2075458;28;19909;-68
2022/03/19 00:57:08;;;;;;;;;;;6.20;99.90;;;;;;2081989;28;19934;-68
2022/03/19 00:58:08;;;;;;;;;;;6.20;99.90;;;;;;2077769;28;19913;-68
2022/03/19 00:59:09;;;;;;;;;;;6.20;99.90;;;;;;2076879;28;19913;-68
2022/03/19 01:00:11;;;;;;;;;;;6.10;99.90;;;;;;2083778;28;20372;-68
2022/03/19 01:01:11;;;;;;;;;;;6.10;99.90;;;;;;2082117;28;19909;-68
2022/03/19 01:02:12;;;;;;;;;;;6.10;99.90;;;;;;2078918;28;19919;-68
2022/03/19 01:03:13;;;;;;;;;;;6.10;99.90;;;;;;2080659;28;19909;-68
2022/03/19 01:04:14;;;;;;;;;;;6.10;99.90;;;;;;2079577;28;20002;-68
2022/03/19 01:05:16;;;;;;;;;;;6.10;99.90;;;;;;2080994;28;19909;-68
2022/03/19 01:06:16;;;;;;;;;;;6.00;99.90;;;;;;2079003;28;19913;-68
2022/03/19 01:07:17;;;;;;;;;;;6.00;99.90;;;;;;2081407;28;19905;-68
2022/03/19 01:08:20;;;;;;;;;;;6.00;99.90;;;;;;2083670;28;19945;-68
2022/03/19 01:09:20;;;;;;;;;;;6.00;99.90;;;;;;2082659;28;19924;-68
2022/03/19 01:10:24;;;;;;;;;;;6.00;99.90;;;;;;2082839;28;19908;-69
2022/03/19 01:11:24;;;;;;;;;;;6.00;99.90;;;;;;2076832;28;19909;-69
2022/03/19 01:12:25;;;;;;;;;;;5.90;99.90;;;;;;2082292;28;20407;-69
2022/03/19 01:13:25;;;;;;;;;;;5.90;99.90;;;;;;2080625;28;19917;-69
2022/03/19 01:14:26;;;;;;;;;;;5.90;99.90;;;;;;2077013;28;19987;-69
2022/03/19 01:15:26;;;;;;;;;;;5.90;99.90;;;;;;2083930;28;20301;-69
2022/03/19 01:16:27;;;;;;;;;;;5.90;99.90;;;;;;2083925;28;20276;-69
2022/03/19 01:17:27;;;;;;;;;;;5.90;99.90;;;;;;2082171;28;19913;-68
2022/03/19 01:18:28;;;;;;;;;;;5.90;99.90;;;;;;2082648;28;19905;-68
2022/03/19 01:20:48;;;;;;;;;;;5.90;99.90;;;;;;2078252;28;20400;-68
2022/03/19 01:21:48;;;;;;;;;;;5.90;99.90;;;;;;2079159;28;20360;-68
2022/03/19 01:22:49;;;;;;;;;;;5.80;99.90;;;;;;2077702;28;20328;-68
2022/03/19 01:23:49;;;;;;;;;;;5.80;99.90;;;;;;2074604;28;19912;-68
2022/03/19 01:24:50;;;;;;;;;;;5.80;99.90;;;;;;2078146;28;19935;-68
2022/03/19 01:25:50;;;;;;;;;;;5.80;99.90;;;;;;2078563;28;19909;-68
2022/03/19 01:26:51;;;;;;;;;;;5.80;99.90;;;;;;2081327;28;19956;-68
2022/03/19 01:27:51;;;;;;;;;;;5.80;99.90;;;;;;2081426;28;20424;-68
2022/03/19 01:28:52;;;;;;;;;;;5.80;99.90;;;;;;2080488;28;19905;-68
2022/03/19 01:29:52;;;;;;;;;;;5.80;99.90;;;;;;2078126;28;20315;-68
2022/03/19 01:30:53;;;;;;;;;;;5.70;99.90;;;;;;2076250;28;20391;-68
2022/03/19 01:31:53;;;;;;;;;;;5.70;99.90;;;;;;2082451;28;19956;-68
2022/03/19 01:32:54;;;;;;;;;;;5.70;99.90;;;;;;2078391;28;20003;-68
2022/03/19 01:33:54;;;;;;;;;;;5.70;99.90;;;;;;2081386;28;19909;-68
2022/03/19 01:34:55;;;;;;;;;;;5.70;99.90;;;;;;2080185;28;19920;-68
2022/03/19 01:35:55;;;;;;;;;;;5.70;99.90;;;;;;2079445;28;19909;-68
2022/03/19 01:36:56;;;;;;;;;;;5.60;99.90;;;;;;2079760;28;19905;-68
2022/03/19 01:37:56;;;;;;;;;;;5.60;99.90;;;;;;2077051;28;19948;-68
2022/03/19 01:38:57;;;;;;;;;;;5.60;99.90;;;;;;2077998;28;19963;-68
2022/03/19 01:39:57;;;;;;;;;;;5.60;99.90;;;;;;2083444;28;19924;-68
2022/03/19 01:40:58;;;;;;;;;;;5.60;99.90;;;;;;2081722;28;20288;-68
2022/03/19 01:41:59;;;;;;;;;;;5.60;99.90;;;;;;2080961;28;19905;-68
2022/03/19 01:43:00;;;;;;;;;;;5.60;99.90;;;;;;2081044;28;19909;-68
2022/03/19 01:44:00;;;;;;;;;;;5.60;99.90;;;;;;2080688;28;19905;-68
2022/03/19 01:45:02;;;;;;;;;;;5.60;99.90;;;;;;2078870;28;19905;-68
2022/03/19 01:46:03;;;;;;;;;;;5.60;99.90;;;;;;2080656;28;19913;-68
2022/03/19 01:47:10;;;;;;;;;;;5.50;99.90;;;;;;2079799;28;19909;-68
2022/03/19 01:48:10;;;;;;;;;;;5.50;99.90;;;;;;2084213;28;19905;-68
2022/03/19 01:49:11;;;;;;;;;;;5.50;99.90;;;;;;2083599;28;20588;-68
2022/03/19 01:50:12;;;;;;;;;;;5.50;99.90;;;;;;2083459;28;19909;-68
2022/03/19 01:51:12;;;;;;;;;;;5.50;99.90;;;;;;2081309;28;19905;-68
2022/03/19 01:52:13;;;;;;;;;;;5.50;99.90;;;;;;2083322;28;19913;-68
2022/03/19 01:53:13;;;;;;;;;;;5.50;99.90;;;;;;2079135;28;20304;-68
2022/03/19 01:54:14;;;;;;;;;;;5.50;99.90;;;;;;2081496;28;19940;-68
2022/03/19 01:55:17;;;;;;;;;;;5.50;99.90;;;;;;2079150;28;19909;-68
2022/03/19 01:56:18;;;;;;;;;;;5.50;99.90;;;;;;2083805;28;19909;-68
2022/03/19 01:57:23;;;;;;;;;;;5.40;99.90;;;;;;2083047;28;19908;-68
2022/03/19 01:58:24;;;;;;;;;;;5.40;99.90;;;;;;2079581;28;20001;-68
2022/03/19 01:59:26;;;;;;;;;;;5.40;99.90;;;;;;2081020;28;19981;-68
2022/03/19 02:00:27;;;;;;;;;;;5.40;99.90;;;;;;2082733;28;20007;-68
2022/03/19 02:01:27;;;;;;;;;;;5.40;99.90;;;;;;2084624;28;20368;-68
2022/03/19 02:02:28;;;;;;;;;;;5.40;99.90;;;;;;2081448;28;19913;-68
2022/03/19 02:03:28;;;;;;;;;;;5.40;99.90;;;;;;2081194;28;19920;-68
2022/03/19 02:04:29;;;;;;;;;;;5.40;99.90;;;;;;2084203;28;20352;-68
2022/03/19 02:05:29;;;;;;;;;;;5.40;99.90;;;;;;2083365;28;20131;-68
2022/03/19 02:06:30;;;;;;;;;;;5.40;99.90;;;;;;2081593;28;19957;-68
2022/03/19 02:07:31;;;;;;;;;;;5.30;99.90;;;;;;2080071;28;19920;-68
2022/03/19 02:08:32;;;;;;;;;;;5.30;99.90;;;;;;2081902;28;20283;-68
2022/03/19 02:09:32;;;;;;;;;;;5.30;99.90;;;;;;2078648;28;19928;-68
2022/03/19 02:10:34;;;;;;;;;;;5.30;99.90;;;;;;2085144;28;19950;-68
2022/03/19 02:11:35;;;;;;;;;;;5.40;99.90;;;;;;2084679;28;19905;-68
2022/03/19 02:12:36;;;;;;;;;;;5.30;99.90;;;;;;2083581;28;20413;-68
2022/03/19 02:13:37;;;;;;;;;;;5.30;99.90;;;;;;2083677;28;19908;-68
2022/03/19 02:14:39;;;;;;;;;;;5.30;99.90;;;;;;2080770;28;19950;-68
2022/03/19 02:15:39;;;;;;;;;;;5.30;99.90;;;;;;2081153;28;19909;-68
2022/03/19 02:16:40;;;;;;;;;;;5.30;99.90;;;;;;2080922;28;19905;-68
2022/03/19 02:17:40;;;;;;;;;;;5.30;99.90;;;;;;2078037;28;20618;-68
2022/03/19 02:18:41;;;;;;;;;;;5.30;99.90;;;;;;2085536;28;20375;-68
2022/03/19 02:19:45;;;;;;;;;;;5.30;99.90;;;;;;2081816;28;19909;-68
2022/03/19 02:20:46;;;;;;;;;;;5.30;99.90;;;;;;2083312;28;19909;-68
2022/03/19 02:21:47;;;;;;;;;;;5.20;99.90;;;;;;2083694;28;19920;-68
2022/03/19 02:25:35;;;;;;;;;;;5.20;99.90;;;;;;2079339;28;19909;-68
2022/03/19 02:26:40;;;;;;;;;;;5.20;99.90;;;;;;2084451;28;20355;-68
2022/03/19 02:27:41;;;;;;;;;;;5.20;99.90;;;;;;2082301;28;20011;-68
2022/03/19 02:28:41;;;;;;;;;;;5.20;99.90;;;;;;2084359;28;19909;-68
2022/03/19 02:29:42;;;;;;;;;;;5.20;99.90;;;;;;2082578;28;19909;-68
2022/03/19 02:30:43;;;;;;;;;;;5.20;99.90;;;;;;2084044;28;19963;-68
2022/03/19 02:31:44;;;;;;;;;;;5.20;99.90;;;;;;2080046;28;19908;-68
2022/03/19 02:32:49;;;;;;;;;;;5.20;99.90;;;;;;2076695;28;20304;-68
2022/03/19 02:33:49;;;;;;;;;;;5.10;99.90;;;;;;2077219;28;19932;-68
2022/03/19 02:34:50;;;;;;;;;;;5.10;99.90;;;;;;2083242;28;19991;-68
2022/03/19 02:35:50;;;;;;;;;;;5.10;99.90;;;;;;2081138;28;20458;-68
2022/03/19 02:36:51;;;;;;;;;;;5.10;99.90;;;;;;2083059;28;19908;-68
2022/03/19 02:37:52;;;;;;;;;;;5.10;99.90;;;;;;2082074;28;19948;-68
2022/03/19 02:38:52;;;;;;;;;;;5.10;99.90;;;;;;2080963;28;19905;-68
2022/03/19 02:39:52;;;;;;;;;;;5.10;99.90;;;;;;2080709;28;20006;-68
2022/03/19 02:40:53;;;;;;;;;;;5.10;99.90;;;;;;2080174;28;19944;-68
2022/03/19 02:41:54;;;;;;;;;;;5.10;99.90;;;;;;2079650;28;20295;-68
2022/03/19 02:43:03;;;;;;;;;;;5.10;99.90;;;;;;2086793;28;20350;-68
2022/03/19 02:44:04;;;;;;;;;;;5.10;99.90;;;;;;2080151;28;20003;-68
2022/03/19 02:45:06;;;;;;;;;;;5.00;99.90;;;;;;2079583;28;19916;-68
2022/03/19 02:46:06;;;;;;;;;;;5.00;99.90;;;;;;2079056;28;20371;-68
2022/03/19 02:47:07;;;;;;;;;;;5.00;99.90;;;;;;2080583;28;20344;-68
2022/03/19 02:48:10;;;;;;;;;;;5.00;99.90;;;;;;2078060;28;19916;-68
2022/03/19 02:49:11;;;;;;;;;;;5.00;99.90;;;;;;2081174;28;19909;-68
2022/03/19 02:50:11;;;;;;;;;;;5.00;99.90;;;;;;2079243;28;19909;-68
2022/03/19 02:51:13;;;;;;;;;;;5.00;99.90;;;;;;2081137;28;20356;-68
2022/03/19 02:52:13;;;;;;;;;;;5.00;99.90;;;;;;2081625;28;19931;-68
2022/03/19 02:53:14;;;;;;;;;;;4.90;99.90;;;;;;2081229;28;19920;-68
2022/03/19 02:54:16;;;;;;;;;;;4.90;99.90;;;;;;2080460;28;19913;-68
2022/03/19 02:55:16;;;;;;;;;;;4.90;99.90;;;;;;2084219;28;19971;-68
2022/03/19 02:56:17;;;;;;;;;;;4.90;99.90;;;;;;2078164;28;20000;-68
2022/03/19 02:57:17;;;;;;;;;;;4.90;99.90;;;;;;2081275;28;19905;-68
2022/03/19 02:58:18;;;;;;;;;;;4.90;99.90;;;;;;2077664;28;19945;-68
2022/03/19 02:59:22;;;;;;;;;;;4.90;99.90;;;;;;2081805;28;19927;-68
2022/03/19 03:00:23;;;;;;;;;;;4.90;99.90;;;;;;2083292;28;19975;-68
2022/03/19 03:01:23;;;;;;;;;;;4.90;99.90;;;;;;2081136;28;19906;-68
2022/03/19 03:02:23;;;;;;;;;;;4.90;99.90;;;;;;2082568;28;19905;-68
2022/03/19 03:03:24;;;;;;;;;;;4.90;99.90;;;;;;2079517;28;19916;-68
2022/03/19 03:04:25;;;;;;;;;;;4.80;99.90;;;;;;2078582;28;20281;-68
2022/03/19 03:05:25;;;;;;;;;;;4.80;99.90;;;;;;2080482;28;19909;-68
2022/03/19 03:06:26;;;;;;;;;;;4.80;99.90;;;;;;2078512;28;20321;-68
2022/03/19 03:07:26;;;;;;;;;;;4.80;99.90;;;;;;2082943;28;20008;-68
2022/03/19 03:08:27;;;;;;;;;;;4.80;99.90;;;;;;2085230;28;19970;-68
2022/03/19 03:09:28;;;;;;;;;;;4.80;99.90;;;;;;2082971;28;19916;-68
2022/03/19 03:10:29;;;;;;;;;;;4.80;99.90;;;;;;2082641;28;20383;-68
2022/03/19 03:11:30;;;;;;;;;;;4.80;99.90;;;;;;2078915;28;20484;-68
2022/03/19 03:12:30;;;;;;;;;;;4.80;99.90;;;;;;2078481;28;20000;-68
2022/03/19 03:13:31;;;;;;;;;;;4.80;99.90;;;;;;2080052;28;20019;-68
2022/03/19 03:14:31;;;;;;;;;;;4.80;99.90;;;;;;2079402;28;19908;-68
2022/03/19 03:15:32;;;;;;;;;;;4.70;99.90;;;;;;2082515;28;19908;-68
2022/03/19 03:16:33;;;;;;;;;;;4.70;99.90;;;;;;2082418;28;19911;-68
2022/03/19 03:17:34;;;;;;;;;;;4.70;99.90;;;;;;2081378;28;19905;-68
2022/03/19 03:18:34;;;;;;;;;;;4.70;99.90;;;;;;2082461;28;19959;-68
2022/03/19 03:19:35;;;;;;;;;;;4.70;99.90;;;;;;2079216;28;19959;-68
2022/03/19 03:20:35;;;;;;;;;;;4.70;99.90;;;;;;2081536;28;20279;-68
2022/03/19 03:21:36;;;;;;;;;;;4.70;99.90;;;;;;2079006;28;19991;-68
2022/03/19 03:22:37;;;;;;;;;;;4.70;99.90;;;;;;2085316;28;19943;-68
2022/03/19 03:23:38;;;;;;;;;;;4.70;99.90;;;;;;2083446;28;19908;-68
2022/03/19 03:24:39;;;;;;;;;;;4.60;99.90;;;;;;2079822;28;20396;-68
2022/03/19 03:25:39;;;;;;;;;;;4.60;99.90;;;;;;2080295;28;19940;-68
2022/03/19 03:26:40;;;;;;;;;;;4.60;99.90;;;;;;2080815;28;19951;-68
2022/03/19 03:27:41;;;;;;;;;;;4.60;99.90;;;;;;2078319;28;19909;-68
2022/03/19 03:28:41;;;;;;;;;;;4.60;99.90;;;;;;2080695;28;19909;-68
2022/03/19 03:29:42;;;;;;;;;;;4.60;99.90;;;;;;2077338;28;19963;-68
2022/03/19 03:30:42;;;;;;;;;;;4.60;99.90;;;;;;2078058;28;19905;-68
2022/03/19 03:31:43;;;;;;;;;;;4.50;99.90;;;;;;2082737;28;19956;-68
2022/03/19 03:32:43;;;;;;;;;;;4.50;99.90;;;;;;2078714;28;20380;-68
2022/03/19 03:33:44;;;;;;;;;;;4.50;99.90;;;;;;2080732;28;19913;-68
2022/03/19 03:34:45;;;;;;;;;;;4.50;99.90;;;;;;2081973;28;19947;-68
2022/03/19 03:35:45;;;;;;;;;;;4.50;99.90;;;;;;2078284;28;20328;-68
2022/03/19 03:36:46;;;;;;;;;;;4.50;99.90;;;;;;2080352;28;19916;-68
2022/03/19 03:37:46;;;;;;;;;;;4.50;99.90;;;;;;2082108;28;19908;-68
2022/03/19 03:38:47;;;;;;;;;;;4.50;99.90;;;;;;2083923;28;20320;-68
2022/03/19 03:39:47;;;;;;;;;;;4.50;99.90;;;;;;2083322;28;19944;-68
2022/03/19 03:40:48;;;;;;;;;;;4.50;99.90;;;;;;2080851;28;19948;-68
2022/03/19 03:41:48;;;;;;;;;;;4.50;99.90;;;;;;2080558;28;20326;-68
2022/03/19 03:42:49;;;;;;;;;;;4.40;99.90;;;;;;2081371;28;19936;-68
2022/03/19 03:43:49;;;;;;;;;;;4.40;99.90;;;;;;2078911;28;19936;-68
2022/03/19 03:44:54;;;;;;;;;;;4.40;99.90;;;;;;2079724;28;19913;-68
2022/03/19 03:45:55;;;;;;;;;;;4.40;99.90;;;;;;2080798;28;20571;-68
2022/03/19 03:46:55;;;;;;;;;;;4.40;99.90;;;;;;2083602;28;20630;-68
2022/03/19 03:47:56;;;;;;;;;;;4.40;99.90;;;;;;2083393;28;19916;-68
2022/03/19 03:48:56;;;;;;;;;;;4.40;99.90;;;;;;2081857;28;19941;-68
2022/03/19 03:49:56;;;;;;;;;;;4.40;99.90;;;;;;2081440;28;19909;-68
2022/03/19 03:50:58;;;;;;;;;;;4.40;99.90;;;;;;2079743;28;19953;-68
2022/03/19 03:51:58;;;;;;;;;;;4.30;99.90;;;;;;2080088;28;19996;-68
2022/03/19 03:52:59;;;;;;;;;;;4.30;99.90;;;;;;2078347;28;19906;-68
2022/03/19 03:53:59;;;;;;;;;;;4.30;99.90;;;;;;2081146;28;19905;-68
2022/03/19 03:55:00;;;;;;;;;;;4.30;99.90;;;;;;2083268;28;19909;-68
2022/03/19 03:56:01;;;;;;;;;;;4.30;99.90;;;;;;2081982;28;19905;-68
2022/03/19 03:57:02;;;;;;;;;;;4.20;99.90;;;;;;2080737;28;19916;-68
2022/03/19 03:58:04;;;;;;;;;;;4.20;99.90;;;;;;2080719;28;19911;-68
2022/03/19 03:59:05;;;;;;;;;;;4.20;99.90;;;;;;2077585;28;19956;-68
2022/03/19 04:00:08;;;;;;;;;;;4.20;99.90;;;;;;2080589;28;20003;-68
2022/03/19 04:01:09;;;;;;;;;;;4.20;99.90;;;;;;2076910;28;19920;-68
2022/03/19 04:02:09;;;;;;;;;;;4.20;99.90;;;;;;2084398;28;20459;-68
2022/03/19 04:03:10;;;;;;;;;;;4.20;99.90;;;;;;2083953;28;19913;-68
2022/03/19 04:04:10;;;;;;;;;;;4.20;99.90;;;;;;2082007;28;19919;-68
2022/03/19 04:05:11;;;;;;;;;;;4.20;99.90;;;;;;2083374;28;19913;-68
2022/03/19 04:06:11;;;;;;;;;;;4.20;99.90;;;;;;2080042;28;20284;-68
2022/03/19 04:07:12;;;;;;;;;;;4.20;99.90;;;;;;2078614;28;19906;-68
2022/03/19 04:08:12;;;;;;;;;;;4.20;99.90;;;;;;2079221;28;20366;-68
2022/03/19 04:09:12;;;;;;;;;;;4.20;99.90;;;;;;2076597;28;19906;-68
2022/03/19 04:10:13;;;;;;;;;;;4.10;99.90;;;;;;2082843;28;19905;-68
2022/03/19 04:11:13;;;;;;;;;;;4.10;99.90;;;;;;2082664;28;19909;-68
2022/03/19 04:12:15;;;;;;;;;;;4.10;99.90;;;;;;2081630;28;19905;-68
2022/03/19 04:13:15;;;;;;;;;;;4.10;99.90;;;;;;2082536;28;20004;-68
2022/03/19 04:14:15;;;;;;;;;;;4.10;99.90;;;;;;2079799;28;19909;-68
2022/03/19 04:15:18;;;;;;;;;;;4.10;99.90;;;;;;2079998;28;19908;-68
2022/03/19 04:16:18;;;;;;;;;;;4.10;99.90;;;;;;2083153;28;19955;-68
2022/03/19 04:17:19;;;;;;;;;;;4.10;99.90;;;;;;2083858;28;19905;-68
2022/03/19 04:18:19;;;;;;;;;;;4.10;99.90;;;;;;2084245;28;20392;-68
2022/03/19 04:19:19;;;;;;;;;;;4.00;99.90;;;;;;2081005;28;20565;-68
2022/03/19 04:20:21;;;;;;;;;;;4.00;99.90;;;;;;2080596;28;20123;-68
2022/03/19 04:21:21;;;;;;;;;;;4.00;99.90;;;;;;2082177;28;20411;-68
2022/03/19 04:22:22;;;;;;;;;;;4.00;99.90;;;;;;2079063;28;19975;-68
2022/03/19 04:23:22;;;;;;;;;;;4.00;99.90;;;;;;2081007;28;19912;-68
2022/03/19 04:24:23;;;;;;;;;;;4.00;99.90;;;;;;2077729;28;20379;-68
2022/03/19 04:25:24;;;;;;;;;;;4.00;99.90;;;;;;2078106;28;19976;-68
2022/03/19 04:26:24;;;;;;;;;;;3.90;99.90;;;;;;2083794;28;19905;-68
2022/03/19 04:27:25;;;;;;;;;;;3.90;99.90;;;;;;2080990;28;20004;-68
2022/03/19 04:28:25;;;;;;;;;;;3.90;99.90;;;;;;2081000;28;19909;-68
2022/03/19 04:29:26;;;;;;;;;;;3.90;99.90;;;;;;2081658;28;19955;-68
2022/03/19 04:30:27;;;;;;;;;;;3.90;99.90;;;;;;2083580;28;19920;-68
2022/03/19 04:31:27;;;;;;;;;;;3.90;99.90;;;;;;2077486;28;19913;-68
2022/03/19 04:32:28;;;;;;;;;;;3.90;99.90;;;;;;2076838;28;19940;-68
2022/03/19 04:33:28;;;;;;;;;;;3.90;99.90;;;;;;2082928;28;20074;-68
2022/03/19 04:34:29;;;;;;;;;;;3.90;99.90;;;;;;2084022;28;19904;-68
2022/03/19 04:36:49;;;;;;;;;;;3.90;99.90;;;;;;2082469;28;20359;-68
2022/03/19 04:37:50;;;;;;;;;;;3.90;99.90;;;;;;2079395;28;20311;-68
2022/03/19 04:38:50;;;;;;;;;;;3.90;99.90;;;;;;2079277;28;19916;-68
2022/03/19 04:39:50;;;;;;;;;;;3.90;99.90;;;;;;2079196;28;19913;-68
2022/03/19 04:40:52;;;;;;;;;;;3.90;99.90;;;;;;2078438;28;20360;-68
2022/03/19 04:41:52;;;;;;;;;;;3.90;99.90;;;;;;2083623;28;19909;-68
2022/03/19 04:42:54;;;;;;;;;;;3.90;99.90;;;;;;2082610;28;20002;-68
2022/03/19 04:43:54;;;;;;;;;;;3.90;99.90;;;;;;2081448;28;19955;-68
2022/03/19 04:44:55;;;;;;;;;;;3.90;99.90;;;;;;2079317;28;19967;-68
2022/03/19 04:45:55;;;;;;;;;;;3.90;99.90;;;;;;2076761;28;19909;-68
2022/03/19 04:46:56;;;;;;;;;;;3.90;99.90;;;;;;2077954;28;20364;-68
2022/03/19 04:47:56;;;;;;;;;;;3.90;99.90;;;;;;2078026;28;19931;-68
2022/03/19 04:48:57;;;;;;;;;;;3.90;99.90;;;;;;2078821;28;19959;-68
2022/03/19 04:49:59;;;;;;;;;;;3.90;99.90;;;;;;2083518;28;19909;-68
2022/03/19 04:51:00;;;;;;;;;;;3.90;99.90;;;;;;2082334;28;19905;-68
2022/03/19 04:52:00;;;;;;;;;;;3.90;99.90;;;;;;2081886;28;19909;-68
2022/03/19 04:53:01;;;;;;;;;;;3.90;99.90;;;;;;2080592;28;19913;-68
2022/03/19 04:54:02;;;;;;;;;;;3.90;99.90;;;;;;2078470;28;19909;-68
2022/03/19 04:55:03;;;;;;;;;;;3.90;99.90;;;;;;2078789;28;19909;-68
2022/03/19 04:56:03;;;;;;;;;;;3.90;99.90;;;;;;2079183;28;19906;-68
2022/03/19 04:57:04;;;;;;;;;;;3.90;99.90;;;;;;2083158;28;19996;-68
2022/03/19 04:58:04;;;;;;;;;;;3.90;99.90;;;;;;2082965;28;19908;-68
2022/03/19 04:59:06;;;;;;;;;;;3.90;99.90;;;;;;2078789;28;19909;-68
2022/03/19 05:00:09;;;;;;;;;;;3.90;99.90;;;;;;2082389;28;19909;-68
2022/03/19 05:01:09;;;;;;;;;;;3.90;99.90;;;;;;2077668;28;19909;-68
2022/03/19 05:02:10;;;;;;;;;;;4.00;99.90;;;;;;2080444;28;20004;-68
2022/03/19 05:03:13;;;;;;;;;;;4.00;99.90;;;;;;2078263;28;19913;-68
2022/03/19 05:04:13;;;;;;;;;;;3.90;99.90;;;;;;2076840;28;19943;-68
2022/03/19 05:05:13;;;;;;;;;;;4.00;99.90;;;;;;2080055;28;19909;-68
2022/03/19 05:06:14;;;;;;;;;;;3.90;99.90;;;;;;2082335;28;19911;-68
2022/03/19 05:07:14;;;;;;;;;;;4.00;99.90;;;;;;2080960;28;19946;-68
2022/03/19 05:08:16;;;;;;;;;;;4.00;99.90;;;;;;2082609;28;20280;-68
2022/03/19 05:11:55;;;;;;;;;;;4.00;99.90;;;;;;2078294;28;20000;-68
2022/03/19 05:12:56;;;;;;;;;;;4.00;99.90;;;;;;2082109;28;19909;-68
2022/03/19 05:13:56;;;;;;;;;;;4.00;99.90;;;;;;2083327;28;19999;-68
2022/03/19 05:14:57;;;;;;;;;;;4.00;99.90;;;;;;2080365;28;19905;-68
2022/03/19 05:15:58;;;;;;;;;;;4.00;99.90;;;;;;2079531;28;19956;-68
2022/03/19 05:16:58;;;;;;;;;;;4.00;99.90;;;;;;2080492;28;19905;-68
2022/03/19 05:17:59;;;;;;;;;;;4.00;99.90;;;;;;2075663;28;19912;-68
2022/03/19 05:18:59;;;;;;;;;;;4.00;99.90;;;;;;2076831;28;19928;-68
2022/03/19 05:20:00;;;;;;;;;;;4.00;99.90;;;;;;2078720;28;20348;-68
2022/03/19 05:21:00;;;;;;;;;;;4.00;99.90;;;;;;2079726;28;19970;-68
2022/03/19 05:22:00;;;;;;;;;;;4.00;99.90;;;;;;2076197;28;19916;-68
2022/03/19 05:23:01;;;;;;;;;;;4.00;99.90;;;;;;2083252;28;19918;-68
2022/03/19 05:24:02;;;;;;;;;;;4.10;99.90;;;;;;2080717;28;19905;-68
2022/03/19 05:25:02;;;;;;;;;;;4.10;99.90;;;;;;2084642;28;20522;-68
2022/03/19 05:26:03;;;;;;;;;;;4.10;99.90;;;;;;2080654;28;19948;-68
2022/03/19 05:27:04;;;;;;;;;;;4.10;99.90;;;;;;2077695;28;19906;-68
2022/03/19 05:28:05;;;;;;;;;;;4.10;99.90;;;;;;2078900;28;19915;-68
2022/03/19 05:29:05;;;;;;;;;;;4.10;99.90;;;;;;2083813;28;19916;-68
2022/03/19 05:30:06;;;;;;;;;;;4.10;99.90;;;;;;2082195;28;20469;-68
2022/03/19 05:31:08;;;;;;;;;;;4.10;99.90;;;;;;2079767;28;19909;-68
2022/03/19 05:32:08;;;;;;;;;;;4.10;99.90;;;;;;2075891;28;19909;-68
2022/03/19 05:33:10;;;;;;;;;;;4.10;99.90;;;;;;2078120;28;19945;-68
2022/03/19 05:35:29;;;;;;;;;;;4.10;99.90;;;;;;2075642;28;20015;-68
2022/03/19 05:36:30;;;;;;;;;;;4.10;99.90;;;;;;2082157;28;19908;-68
2022/03/19 05:37:31;;;;;;;;;;;4.10;99.90;;;;;;2083270;28;19909;-68
2022/03/19 05:38:32;;;;;;;;;;;4.10;99.90;;;;;;2082674;28;19935;-68
2022/03/19 05:39:33;;;;;;;;;;;4.10;99.90;;;;;;2082358;28;19996;-68
2022/03/19 05:40:34;;;;;;;;;;;4.10;99.90;;;;;;2078875;28;19921;-68
2022/03/19 05:41:35;;;;;;;;;;;4.10;99.90;;;;;;2078708;28;19904;-68
2022/03/19 05:42:36;;;;;;;;;;;4.10;99.90;;;;;;2079007;28;20396;-68
2022/03/19 05:43:36;;;;;;;;;;;4.10;99.90;;;;;;2080250;28;19905;-68
2022/03/19 05:44:37;;;;;;;;;;;4.10;99.90;;;;;;2083289;28;19998;-68
2022/03/19 05:45:37;;;;;;;;;;;4.10;99.90;;;;;;2078944;28;19944;-68
2022/03/19 05:46:38;;;;;;;;;;;4.10;99.90;;;;;;2081559;28;20279;-68
2022/03/19 05:47:39;;;;;;;;;;;4.10;99.90;;;;;;2079928;28;19958;-68
2022/03/19 05:48:39;;;;;;;;;;;4.20;99.90;;;;;;2078555;28;19909;-68
2022/03/19 05:49:41;;;;;;;;;;;4.20;99.90;;;;;;2080812;28;19905;-68
2022/03/19 05:50:41;;;;;;;;;;;4.20;99.90;;;;;;2081738;28;20443;-68
2022/03/19 05:51:42;;;;;;;;;;;4.20;99.90;;;;;;2076453;28;20015;-68
2022/03/19 05:52:45;;;;;;;;;;;4.20;99.90;;;;;;2083539;28;19915;-68
2022/03/19 05:53:45;;;;;;;;;;;4.20;99.90;;;;;;2080653;28;20342;-68
2022/03/19 05:54:45;;;;;;;;;;;4.20;99.90;;;;;;2081232;28;19978;-68
2022/03/19 05:55:46;;;;;;;;;;;4.20;99.90;;;;;;2081416;28;19940;-68
2022/03/19 05:56:46;;;;;;;;;;;4.30;99.90;;;;;;2078853;28;19905;-68
2022/03/19 05:57:47;;;;;;;;;;;4.30;99.90;;;;;;2077835;28;19905;-68
2022/03/19 05:58:47;;;;;;;;;;;4.30;99.90;;;;;;2076599;28;20014;-68
2022/03/19 05:59:48;;;;;;;;;;;4.30;99.90;;;;;;2081205;28;19981;-68
2022/03/19 06:00:48;;;;;;;;;;;4.30;99.90;;;;;;2083233;28;19909;-69
2022/03/19 06:01:49;;;;;;;;;;;4.30;99.90;;;;;;2080013;28;19936;-68
2022/03/19 06:02:49;;;;;;;;;;;4.30;99.90;;;;;;2083839;28;19905;-68
2022/03/19 06:03:50;;;;;;;;;;;4.30;99.90;;;;;;2080314;28;20295;-68
2022/03/19 06:04:51;;;;;;;;;;;4.30;99.90;;;;;;2074370;28;19948;-68
2022/03/19 06:05:51;;;;;;;;;;;4.30;99.90;;;;;;2074185;28;19918;-68
2022/03/19 06:06:51;;;;;;;;;;;4.30;99.90;;;;;;2076412;28;20170;-68
2022/03/19 06:07:52;;;;;;;;;;;4.40;99.90;;;;;;2075490;28;19905;-68
2022/03/19 06:08:53;;;;;;;;;;;4.40;99.90;;;;;;2076437;28;20279;-68